sensor_id;sensor_type;location;lat;lon;timestamp;temperature;humidity
36690;DHT22;22676;51.120;3.702;2022-08-19T01:15:33;26.20;54.90
36690;DHT22;22676;51.120;3.702;2022-08-19T01:18:25;26.10;54.80
36690;DHT22;22676;51.120;3.702;2022-08-19T01:21:34;26.10;54.90
36690;DHT22;22676;51.120;3.702;2022-08-19T01:24:27;26.20;54.90
36690;DHT22;22676;51.120;3.702;2022-08-19T01:27:17;26.20;54.90
36690;DHT22;22676;51.120;3.702;2022-08-19T01:33:19;26.10;54.80
36690;DHT22;22676;51.120;3.702;2022-08-19T01:36:11;26.20;54.90
36690;DHT22;22676;51.120;3.702;2022-08-19T01:39:05;26.10;54.80
36690;DHT22;22676;51.120;3.702;2022-08-19T01:41:56;26.10;54.90
36690;DHT22;22676;51.120;3.702;2022-08-19T01:44:47;26.10;54.90
36690;DHT22;22676;51.120;3.702;2022-08-19T01:47:51;26.10;54.90
36690;DHT22;22676;51.120;3.702;2022-08-19T01:50:41;26.10;54.80
36690;DHT22;22676;51.120;3.702;2022-08-19T01:53:33;26.00;54.70
36690;DHT22;22676;51.120;3.702;2022-08-19T01:56:23;26.10;54.80
36690;DHT22;22676;51.120;3.702;2022-08-19T01:59:16;26.10;54.80
36690;DHT22;22676;51.120;3.702;2022-08-19T02:02:06;26.10;54.80
36690;DHT22;22676;51.120;3.702;2022-08-19T02:04:58;26.00;54.70
36690;DHT22;22676;51.120;3.702;2022-08-19T02:07:49;26.00;54.70
36690;DHT22;22676;51.120;3.702;2022-08-19T02:10:43;26.00;54.70
36690;DHT22;22676;51.120;3.702;2022-08-19T02:13:34;26.00;54.70
36690;DHT22;22676;51.120;3.702;2022-08-19T02:16:25;26.00;54.70
36690;DHT22;22676;51.120;3.702;2022-08-19T02:19:16;26.00;54.70
36690;DHT22;22676;51.120;3.702;2022-08-19T02:22:06;26.00;54.70
36690;DHT22;22676;51.120;3.702;2022-08-19T02:24:57;26.00;54.70
36690;DHT22;22676;51.120;3.702;2022-08-19T02:27:47;26.00;54.70
36690;DHT22;22676;51.120;3.702;2022-08-19T02:30:40;26.00;54.70
36690;DHT22;22676;51.120;3.702;2022-08-19T02:33:32;26.00;54.70
36690;DHT22;22676;51.120;3.702;2022-08-19T02:36:23;25.90;54.60
36690;DHT22;22676;51.120;3.702;2022-08-19T02:39:15;26.00;54.70
36690;DHT22;22676;51.120;3.702;2022-08-19T02:42:06;25.90;54.60
36690;DHT22;22676;51.120;3.702;2022-08-19T02:44:56;25.90;54.60
36690;DHT22;22676;51.120;3.702;2022-08-19T02:48:08;25.90;54.60
36690;DHT22;22676;51.120;3.702;2022-08-19T02:50:58;25.90;54.60
36690;DHT22;22676;51.120;3.702;2022-08-19T02:53:49;25.90;54.60
36690;DHT22;22676;51.120;3.702;2022-08-19T02:56:40;25.90;54.60
36690;DHT22;22676;51.120;3.702;2022-08-19T02:59:31;25.90;54.60
36690;DHT22;22676;51.120;3.702;2022-08-19T03:02:23;25.90;54.60
36690;DHT22;22676;51.120;3.702;2022-08-19T03:05:14;25.90;54.80
36690;DHT22;22676;51.120;3.702;2022-08-19T03:08:05;25.90;54.60
36690;DHT22;22676;51.120;3.702;2022-08-19T03:10:56;25.80;54.50
36690;DHT22;22676;51.120;3.702;2022-08-19T03:13:47;25.90;54.60
36690;DHT22;22676;51.120;3.702;2022-08-19T03:16:42;25.90;54.60
36690;DHT22;22676;51.120;3.702;2022-08-19T03:19:33;25.80;54.50
36690;DHT22;22676;51.120;3.702;2022-08-19T03:22:24;25.80;54.50
36690;DHT22;22676;51.120;3.702;2022-08-19T03:25:15;25.80;54.50
36690;DHT22;22676;51.120;3.702;2022-08-19T03:28:06;25.80;54.50
36690;DHT22;22676;51.120;3.702;2022-08-19T03:30:58;25.80;54.50
36690;DHT22;22676;51.120;3.702;2022-08-19T03:33:49;25.80;54.50
36690;DHT22;22676;51.120;3.702;2022-08-19T03:36:40;25.80;54.50
36690;DHT22;22676;51.120;3.702;2022-08-19T03:39:31;25.80;54.50
36690;DHT22;22676;51.120;3.702;2022-08-19T03:42:22;25.80;54.50
36690;DHT22;22676;51.120;3.702;2022-08-19T03:45:13;25.80;54.50
36690;DHT22;22676;51.120;3.702;2022-08-19T03:48:24;25.80;54.50
36690;DHT22;22676;51.120;3.702;2022-08-19T03:51:19;25.80;54.50
36690;DHT22;22676;51.120;3.702;2022-08-19T03:54:11;25.80;54.50
36690;DHT22;22676;51.120;3.702;2022-08-19T03:57:02;25.80;54.50
36690;DHT22;22676;51.120;3.702;2022-08-19T03:59:53;25.70;54.50
36690;DHT22;22676;51.120;3.702;2022-08-19T04:02:44;25.70;54.50
36690;DHT22;22676;51.120;3.702;2022-08-19T04:05:35;25.70;54.40
36690;DHT22;22676;51.120;3.702;2022-08-19T04:08:26;25.70;54.50
36690;DHT22;22676;51.120;3.702;2022-08-19T04:11:18;25.70;54.50
36690;DHT22;22676;51.120;3.702;2022-08-19T04:14:17;25.70;54.50
36690;DHT22;22676;51.120;3.702;2022-08-19T04:17:09;25.70;54.40
36690;DHT22;22676;51.120;3.702;2022-08-19T04:19:59;25.70;54.40
36690;DHT22;22676;51.120;3.702;2022-08-19T04:22:50;25.70;54.40
36690;DHT22;22676;51.120;3.702;2022-08-19T04:25:42;25.70;54.40
36690;DHT22;22676;51.120;3.702;2022-08-19T04:28:33;25.70;54.40
36690;DHT22;22676;51.120;3.702;2022-08-19T04:31:25;25.70;54.40
36690;DHT22;22676;51.120;3.702;2022-08-19T04:34:17;25.70;54.40
36690;DHT22;22676;51.120;3.702;2022-08-19T04:37:08;25.70;54.40
36690;DHT22;22676;51.120;3.702;2022-08-19T04:39:59;25.70;54.40
36690;DHT22;22676;51.120;3.702;2022-08-19T04:42:49;25.70;54.30
36690;DHT22;22676;51.120;3.702;2022-08-19T04:45:40;25.70;54.30
36690;DHT22;22676;51.120;3.702;2022-08-19T04:48:45;25.70;54.00
36690;DHT22;22676;51.120;3.702;2022-08-19T04:51:36;25.70;53.90
36690;DHT22;22676;51.120;3.702;2022-08-19T04:54:27;25.60;53.80
36690;DHT22;22676;51.120;3.702;2022-08-19T04:57:18;25.60;53.80
36690;DHT22;22676;51.120;3.702;2022-08-19T05:00:08;25.50;53.80
36690;DHT22;22676;51.120;3.702;2022-08-19T05:02:59;25.50;53.90
36690;DHT22;22676;51.120;3.702;2022-08-19T05:05:50;25.60;53.70
36690;DHT22;22676;51.120;3.702;2022-08-19T05:08:40;25.60;53.80
36690;DHT22;22676;51.120;3.702;2022-08-19T05:11:32;25.50;53.90
36690;DHT22;22676;51.120;3.702;2022-08-19T05:14:23;25.40;54.10
36690;DHT22;22676;51.120;3.702;2022-08-19T05:17:14;25.30;54.30
36690;DHT22;22676;51.120;3.702;2022-08-19T05:20:05;25.20;55.20
36690;DHT22;22676;51.120;3.702;2022-08-19T05:22:56;25.20;54.90
36690;DHT22;22676;51.120;3.702;2022-08-19T05:25:47;25.10;54.90
36690;DHT22;22676;51.120;3.702;2022-08-19T05:28:38;25.10;55.10
36690;DHT22;22676;51.120;3.702;2022-08-19T05:31:28;25.10;55.30
36690;DHT22;22676;51.120;3.702;2022-08-19T05:34:19;25.10;55.60
36690;DHT22;22676;51.120;3.702;2022-08-19T05:37:10;25.10;55.70
36690;DHT22;22676;51.120;3.702;2022-08-19T05:40:01;25.10;55.60
36690;DHT22;22676;51.120;3.702;2022-08-19T05:42:52;25.10;55.70
36690;DHT22;22676;51.120;3.702;2022-08-19T05:45:43;25.20;55.80
36690;DHT22;22676;51.120;3.702;2022-08-19T05:48:46;25.10;55.90
36690;DHT22;22676;51.120;3.702;2022-08-19T05:51:37;25.20;56.10
36690;DHT22;22676;51.120;3.702;2022-08-19T05:54:28;25.10;56.20
36690;DHT22;22676;51.120;3.702;2022-08-19T05:57:19;25.20;56.40
36690;DHT22;22676;51.120;3.702;2022-08-19T06:00:10;25.20;56.40
36690;DHT22;22676;51.120;3.702;2022-08-19T06:03:01;25.10;56.50
36690;DHT22;22676;51.120;3.702;2022-08-19T06:05:52;25.10;56.70
36690;DHT22;22676;51.120;3.702;2022-08-19T06:08:43;25.10;56.80
36690;DHT22;22676;51.120;3.702;2022-08-19T06:11:35;25.10;57.00
36690;DHT22;22676;51.120;3.702;2022-08-19T06:14:28;25.10;57.10
36690;DHT22;22676;51.120;3.702;2022-08-19T06:17:19;25.10;57.10
36690;DHT22;22676;51.120;3.702;2022-08-19T06:20:11;25.10;57.00
36690;DHT22;22676;51.120;3.702;2022-08-19T06:23:03;25.10;56.70
36690;DHT22;22676;51.120;3.702;2022-08-19T06:25:54;25.10;56.70
36690;DHT22;22676;51.120;3.702;2022-08-19T06:28:46;25.10;56.50
36690;DHT22;22676;51.120;3.702;2022-08-19T06:31:40;25.10;56.50
36690;DHT22;22676;51.120;3.702;2022-08-19T06:34:31;25.20;56.50
36690;DHT22;22676;51.120;3.702;2022-08-19T06:37:22;25.20;56.50
36690;DHT22;22676;51.120;3.702;2022-08-19T06:40:13;25.20;56.50
36690;DHT22;22676;51.120;3.702;2022-08-19T06:43:04;25.20;56.50
36690;DHT22;22676;51.120;3.702;2022-08-19T06:45:55;25.20;56.40
36690;DHT22;22676;51.120;3.702;2022-08-19T07:26:33;25.30;56.00
36690;DHT22;22676;51.120;3.702;2022-08-19T07:29:23;25.30;56.00
36690;DHT22;22676;51.120;3.702;2022-08-19T07:32:14;25.30;56.00
36690;DHT22;22676;51.120;3.702;2022-08-19T07:35:05;25.40;56.00
36690;DHT22;22676;51.120;3.702;2022-08-19T07:37:56;25.30;56.00
36690;DHT22;22676;51.120;3.702;2022-08-19T07:40:47;25.30;55.90
36690;DHT22;22676;51.120;3.702;2022-08-19T07:43:38;25.30;55.90
36690;DHT22;22676;51.120;3.702;2022-08-19T07:46:32;25.30;55.90
36690;DHT22;22676;51.120;3.702;2022-08-19T07:48:58;25.30;55.90
36690;DHT22;22676;51.120;3.702;2022-08-19T07:51:25;25.30;56.00
36690;DHT22;22676;51.120;3.702;2022-08-19T07:53:51;25.40;56.10
36690;DHT22;22676;51.120;3.702;2022-08-19T07:56:18;25.40;56.30
36690;DHT22;22676;51.120;3.702;2022-08-19T07:58:45;25.40;56.30
36690;DHT22;22676;51.120;3.702;2022-08-19T08:01:12;25.40;56.00
36690;DHT22;22676;51.120;3.702;2022-08-19T08:03:38;25.40;55.80
36690;DHT22;22676;51.120;3.702;2022-08-19T08:06:22;25.40;55.80
36690;DHT22;22676;51.120;3.702;2022-08-19T08:09:07;25.40;55.80
36690;DHT22;22676;51.120;3.702;2022-08-19T08:11:55;25.40;55.70
36690;DHT22;22676;51.120;3.702;2022-08-19T08:14:25;25.40;55.70
36690;DHT22;22676;51.120;3.702;2022-08-19T08:16:52;25.40;55.70
36690;DHT22;22676;51.120;3.702;2022-08-19T08:19:20;25.40;56.10
36690;DHT22;22676;51.120;3.702;2022-08-19T08:22:15;25.40;56.20
36690;DHT22;22676;51.120;3.702;2022-08-19T10:04:44;25.50;55.80
36690;DHT22;22676;51.120;3.702;2022-08-19T10:07:35;25.50;55.70
36690;DHT22;22676;51.120;3.702;2022-08-19T10:10:26;25.50;55.70
36690;DHT22;22676;51.120;3.702;2022-08-19T10:13:18;25.50;55.70
36690;DHT22;22676;51.120;3.702;2022-08-19T10:16:10;25.50;55.70
36690;DHT22;22676;51.120;3.702;2022-08-19T10:19:01;25.50;55.70
36690;DHT22;22676;51.120;3.702;2022-08-19T10:21:52;25.60;55.80
36690;DHT22;22676;51.120;3.702;2022-08-19T10:24:43;25.60;55.80
36690;DHT22;22676;51.120;3.702;2022-08-19T10:27:34;25.60;55.90
36690;DHT22;22676;51.120;3.702;2022-08-19T10:33:35;25.60;55.70
36690;DHT22;22676;51.120;3.702;2022-08-19T10:36:27;25.60;55.60
36690;DHT22;22676;51.120;3.702;2022-08-19T10:39:18;25.60;55.80
36690;DHT22;22676;51.120;3.702;2022-08-19T10:42:09;25.60;55.80
36690;DHT22;22676;51.120;3.702;2022-08-19T10:45:00;25.60;55.60
36690;DHT22;22676;51.120;3.702;2022-08-19T10:48:06;25.70;55.70
36690;DHT22;22676;51.120;3.702;2022-08-19T10:50:57;25.70;55.70
36690;DHT22;22676;51.120;3.702;2022-08-19T10:53:48;25.70;55.90
36690;DHT22;22676;51.120;3.702;2022-08-19T10:56:39;25.70;56.70
36690;DHT22;22676;51.120;3.702;2022-08-19T10:59:29;25.70;57.00
36690;DHT22;22676;51.120;3.702;2022-08-19T11:02:20;25.70;56.30
36690;DHT22;22676;51.120;3.702;2022-08-19T11:05:10;25.70;56.00
36690;DHT22;22676;51.120;3.702;2022-08-19T11:08:01;25.70;55.90
36690;DHT22;22676;51.120;3.702;2022-08-19T11:10:52;25.70;55.90
36690;DHT22;22676;51.120;3.702;2022-08-19T11:13:43;25.70;55.90
36690;DHT22;22676;51.120;3.702;2022-08-19T11:16:34;25.70;55.70
36690;DHT22;22676;51.120;3.702;2022-08-19T11:19:25;25.70;55.70
36690;DHT22;22676;51.120;3.702;2022-08-19T11:22:16;25.70;55.70
36690;DHT22;22676;51.120;3.702;2022-08-19T11:25:08;25.70;55.60
36690;DHT22;22676;51.120;3.702;2022-08-19T11:27:59;25.70;55.80
36690;DHT22;22676;51.120;3.702;2022-08-19T11:30:50;25.70;55.80
36690;DHT22;22676;51.120;3.702;2022-08-19T11:33:41;25.70;55.80
36690;DHT22;22676;51.120;3.702;2022-08-19T11:36:32;25.70;55.80
36690;DHT22;22676;51.120;3.702;2022-08-19T11:39:23;25.70;55.90
36690;DHT22;22676;51.120;3.702;2022-08-19T11:42:14;25.70;55.80
36690;DHT22;22676;51.120;3.702;2022-08-19T11:45:05;25.70;55.90
36690;DHT22;22676;51.120;3.702;2022-08-19T11:48:09;25.70;55.70
36690;DHT22;22676;51.120;3.702;2022-08-19T11:51:02;25.70;55.90
36690;DHT22;22676;51.120;3.702;2022-08-19T11:53:53;25.70;55.60
36690;DHT22;22676;51.120;3.702;2022-08-19T11:56:44;25.70;55.10
36690;DHT22;22676;51.120;3.702;2022-08-19T11:59:35;25.80;55.00
36690;DHT22;22676;51.120;3.702;2022-08-19T12:02:25;25.80;55.70
36690;DHT22;22676;51.120;3.702;2022-08-19T12:05:16;25.80;56.30
36690;DHT22;22676;51.120;3.702;2022-08-19T12:08:07;25.80;56.00
36690;DHT22;22676;51.120;3.702;2022-08-19T12:10:58;25.80;55.70
36690;DHT22;22676;51.120;3.702;2022-08-19T12:13:50;25.80;55.70
36690;DHT22;22676;51.120;3.702;2022-08-19T12:16:40;25.80;55.60
36690;DHT22;22676;51.120;3.702;2022-08-19T12:19:32;25.80;55.50
36690;DHT22;22676;51.120;3.702;2022-08-19T12:22:22;25.80;55.50
36690;DHT22;22676;51.120;3.702;2022-08-19T12:25:13;25.80;55.50
36690;DHT22;22676;51.120;3.702;2022-08-19T12:28:04;25.90;55.50
36690;DHT22;22676;51.120;3.702;2022-08-19T12:30:55;25.90;55.30
36690;DHT22;22676;51.120;3.702;2022-08-19T12:33:46;25.90;55.10
36690;DHT22;22676;51.120;3.702;2022-08-19T12:36:37;25.90;55.20
36690;DHT22;22676;51.120;3.702;2022-08-19T12:39:28;26.00;55.10
36690;DHT22;22676;51.120;3.702;2022-08-19T12:42:19;25.90;55.00
36690;DHT22;22676;51.120;3.702;2022-08-19T12:45:11;25.90;54.90
36690;DHT22;22676;51.120;3.702;2022-08-19T12:48:15;26.00;54.90
36690;DHT22;22676;51.120;3.702;2022-08-19T12:51:06;26.00;54.70
36690;DHT22;22676;51.120;3.702;2022-08-19T12:53:57;26.00;54.50
36690;DHT22;22676;51.120;3.702;2022-08-19T12:56:48;26.00;54.50
36690;DHT22;22676;51.120;3.702;2022-08-19T12:59:39;26.00;54.50
36690;DHT22;22676;51.120;3.702;2022-08-19T14:43:38;26.20;55.50
36690;DHT22;22676;51.120;3.702;2022-08-19T14:46:29;26.20;55.50
36690;DHT22;22676;51.120;3.702;2022-08-19T14:48:55;26.20;55.60
36690;DHT22;22676;51.120;3.702;2022-08-19T14:51:49;26.20;55.70
36690;DHT22;22676;51.120;3.702;2022-08-19T16:48:29;26.70;57.10
36690;DHT22;22676;51.120;3.702;2022-08-19T16:51:19;26.70;57.30
36690;DHT22;22676;51.120;3.702;2022-08-19T16:54:10;26.80;58.80
36690;DHT22;22676;51.120;3.702;2022-08-19T16:57:01;26.70;58.30
36690;DHT22;22676;51.120;3.702;2022-08-19T16:59:51;26.70;57.80
36690;DHT22;22676;51.120;3.702;2022-08-19T17:02:42;26.70;58.30
36690;DHT22;22676;51.120;3.702;2022-08-19T17:05:33;26.70;58.60
36690;DHT22;22676;51.120;3.702;2022-08-19T17:08:25;26.70;59.30
36690;DHT22;22676;51.120;3.702;2022-08-19T17:11:17;26.70;59.30
36690;DHT22;22676;51.120;3.702;2022-08-19T17:14:08;26.70;58.60
36690;DHT22;22676;51.120;3.702;2022-08-19T17:16:59;26.70;58.30
36690;DHT22;22676;51.120;3.702;2022-08-19T17:19:50;26.70;59.60
36690;DHT22;22676;51.120;3.702;2022-08-19T17:22:41;26.70;59.80
36690;DHT22;22676;51.120;3.702;2022-08-19T17:25:32;26.70;59.00
36690;DHT22;22676;51.120;3.702;2022-08-19T17:28:24;26.70;59.10
36690;DHT22;22676;51.120;3.702;2022-08-19T17:31:16;26.70;59.40
36690;DHT22;22676;51.120;3.702;2022-08-19T17:34:06;26.70;58.90
36690;DHT22;22676;51.120;3.702;2022-08-19T17:36:57;26.60;59.20
36690;DHT22;22676;51.120;3.702;2022-08-19T17:39:48;26.60;59.10
36690;DHT22;22676;51.120;3.702;2022-08-19T17:42:39;26.60;59.50
36690;DHT22;22676;51.120;3.702;2022-08-19T18:50:09;26.50;59.90
36690;DHT22;22676;51.120;3.702;2022-08-19T18:52:37;26.50;60.40
36690;DHT22;22676;51.120;3.702;2022-08-19T18:55:03;26.60;60.40
36690;DHT22;22676;51.120;3.702;2022-08-19T18:57:30;26.50;60.30
36690;DHT22;22676;51.120;3.702;2022-08-19T18:59:55;26.50;60.50
36690;DHT22;22676;51.120;3.702;2022-08-19T19:02:24;26.50;60.60
36690;DHT22;22676;51.120;3.702;2022-08-19T19:05:16;26.60;60.60
36690;DHT22;22676;51.120;3.702;2022-08-19T19:41:48;26.60;60.50
36690;DHT22;22676;51.120;3.702;2022-08-19T19:44:39;26.60;60.50
36690;DHT22;22676;51.120;3.702;2022-08-19T19:47:50;26.60;60.60
36690;DHT22;22676;51.120;3.702;2022-08-19T19:50:41;26.60;60.60
36690;DHT22;22676;51.120;3.702;2022-08-19T19:53:32;26.70;60.70
36690;DHT22;22676;51.120;3.702;2022-08-19T19:56:23;26.60;60.60
36690;DHT22;22676;51.120;3.702;2022-08-19T19:59:15;26.60;60.50
36690;DHT22;22676;51.120;3.702;2022-08-19T20:02:05;26.60;60.80
36690;DHT22;22676;51.120;3.702;2022-08-19T20:04:56;26.60;60.80
36690;DHT22;22676;51.120;3.702;2022-08-19T20:07:47;26.60;60.50
36690;DHT22;22676;51.120;3.702;2022-08-19T20:10:38;26.60;60.50
36690;DHT22;22676;51.120;3.702;2022-08-19T20:13:30;26.60;60.50
36690;DHT22;22676;51.120;3.702;2022-08-19T20:16:20;26.60;60.40
36690;DHT22;22676;51.120;3.702;2022-08-19T20:19:12;26.60;60.20
36690;DHT22;22676;51.120;3.702;2022-08-19T20:22:04;26.60;60.10
36690;DHT22;22676;51.120;3.702;2022-08-19T20:24:55;26.60;60.20
36690;DHT22;22676;51.120;3.702;2022-08-19T20:27:46;26.70;60.40
36690;DHT22;22676;51.120;3.702;2022-08-19T20:30:37;26.70;60.20
36690;DHT22;22676;51.120;3.702;2022-08-19T20:33:28;26.60;60.20
36690;DHT22;22676;51.120;3.702;2022-08-19T20:36:18;26.60;59.90
36690;DHT22;22676;51.120;3.702;2022-08-19T20:39:09;26.70;60.10
36690;DHT22;22676;51.120;3.702;2022-08-19T20:42:00;26.60;59.80
36690;DHT22;22676;51.120;3.702;2022-08-19T20:44:51;26.60;59.80
36690;DHT22;22676;51.120;3.702;2022-08-19T20:47:56;26.60;59.90
36690;DHT22;22676;51.120;3.702;2022-08-19T20:50:47;26.60;59.80
36690;DHT22;22676;51.120;3.702;2022-08-19T20:53:39;26.60;59.80
36690;DHT22;22676;51.120;3.702;2022-08-19T20:56:29;26.60;59.80
36690;DHT22;22676;51.120;3.702;2022-08-19T20:59:20;26.60;59.80
36690;DHT22;22676;51.120;3.702;2022-08-19T21:02:11;26.60;59.80
36690;DHT22;22676;51.120;3.702;2022-08-19T21:05:03;26.60;59.80
36690;DHT22;22676;51.120;3.702;2022-08-19T21:07:53;26.60;59.80
36690;DHT22;22676;51.120;3.702;2022-08-19T21:10:45;26.60;59.80
36690;DHT22;22676;51.120;3.702;2022-08-19T21:13:35;26.50;59.80
36690;DHT22;22676;51.120;3.702;2022-08-19T21:16:26;26.50;59.70
36690;DHT22;22676;51.120;3.702;2022-08-19T21:19:17;26.50;59.70
36690;DHT22;22676;51.120;3.702;2022-08-19T21:22:08;26.50;59.70
36690;DHT22;22676;51.120;3.702;2022-08-19T21:24:59;26.50;59.70
36690;DHT22;22676;51.120;3.702;2022-08-19T21:27:50;26.50;59.40
36690;DHT22;22676;51.120;3.702;2022-08-19T21:30:41;26.50;59.50
36690;DHT22;22676;51.120;3.702;2022-08-19T21:33:32;26.50;59.40
36690;DHT22;22676;51.120;3.702;2022-08-19T21:36:23;26.50;59.50
36690;DHT22;22676;51.120;3.702;2022-08-19T21:39:14;26.50;59.20
36690;DHT22;22676;51.120;3.702;2022-08-19T21:42:05;26.50;58.90
36690;DHT22;22676;51.120;3.702;2022-08-19T21:44:56;26.50;58.70
36690;DHT22;22676;51.120;3.702;2022-08-19T21:48:07;26.50;58.50
36690;DHT22;22676;51.120;3.702;2022-08-19T21:50:57;26.60;58.40
36690;DHT22;22676;51.120;3.702;2022-08-19T21:53:48;26.60;58.10
36690;DHT22;22676;51.120;3.702;2022-08-19T21:56:39;26.60;58.00
36690;DHT22;22676;51.120;3.702;2022-08-19T21:59:30;26.60;57.90
36690;DHT22;22676;51.120;3.702;2022-08-19T22:02:21;26.60;57.70
36690;DHT22;22676;51.120;3.702;2022-08-19T22:05:12;26.60;57.60
36690;DHT22;22676;51.120;3.702;2022-08-19T22:08:03;26.70;57.70
36690;DHT22;22676;51.120;3.702;2022-08-19T22:10:54;26.60;57.70
36690;DHT22;22676;51.120;3.702;2022-08-19T22:13:45;26.60;57.70
36690;DHT22;22676;51.120;3.702;2022-08-19T22:16:36;26.60;57.60
36690;DHT22;22676;51.120;3.702;2022-08-19T22:19:27;26.60;57.30
36690;DHT22;22676;51.120;3.702;2022-08-19T22:22:19;26.60;57.50
36690;DHT22;22676;51.120;3.702;2022-08-19T22:25:12;26.70;57.30
36690;DHT22;22676;51.120;3.702;2022-08-19T22:28:04;26.70;57.30
36690;DHT22;22676;51.120;3.702;2022-08-19T22:30:55;26.60;57.10
36690;DHT22;22676;51.120;3.702;2022-08-19T22:33:45;26.60;57.00
36690;DHT22;22676;51.120;3.702;2022-08-19T22:36:36;26.60;57.00
36690;DHT22;22676;51.120;3.702;2022-08-19T22:39:27;26.60;57.30
36690;DHT22;22676;51.120;3.702;2022-08-19T22:42:19;26.60;57.30
36690;DHT22;22676;51.120;3.702;2022-08-19T22:45:10;26.70;57.60
36690;DHT22;22676;51.120;3.702;2022-08-19T22:48:16;26.70;57.70
36690;DHT22;22676;51.120;3.702;2022-08-19T22:51:07;26.70;57.60
36690;DHT22;22676;51.120;3.702;2022-08-19T22:53:58;26.70;57.50
36690;DHT22;22676;51.120;3.702;2022-08-19T22:56:49;26.70;57.20
36690;DHT22;22676;51.120;3.702;2022-08-19T22:59:39;26.70;57.10
36690;DHT22;22676;51.120;3.702;2022-08-19T23:02:32;26.70;57.00
36690;DHT22;22676;51.120;3.702;2022-08-19T23:05:24;26.70;56.90
36690;DHT22;22676;51.120;3.702;2022-08-19T23:08:15;26.70;56.90
36690;DHT22;22676;51.120;3.702;2022-08-19T23:11:06;26.70;56.90
36690;DHT22;22676;51.120;3.702;2022-08-19T23:13:57;26.70;56.90
36690;DHT22;22676;51.120;3.702;2022-08-19T23:16:48;26.80;56.90
36690;DHT22;22676;51.120;3.702;2022-08-19T23:19:39;26.80;56.80
36690;DHT22;22676;51.120;3.702;2022-08-19T23:22:29;26.80;56.80
36690;DHT22;22676;51.120;3.702;2022-08-19T23:25:22;26.70;56.70
36690;DHT22;22676;51.120;3.702;2022-08-19T23:28:13;26.70;56.70
36690;DHT22;22676;51.120;3.702;2022-08-19T23:31:05;26.80;56.60
36690;DHT22;22676;51.120;3.702;2022-08-19T23:33:55;26.70;56.50
36690;DHT22;22676;51.120;3.702;2022-08-19T23:36:46;26.70;56.80
36690;DHT22;22676;51.120;3.702;2022-08-19T23:39:37;26.70;56.80
36690;DHT22;22676;51.120;3.702;2022-08-19T23:42:28;26.70;56.70
36690;DHT22;22676;51.120;3.702;2022-08-19T23:45:19;26.70;56.60
